Time;durP1;ratioP1;P1;durP2;ratioP2;P2;SDS_P1;SDS_P2;PMS_P1;PMS_P2;Temp;Humidity;BMP_temperature;BMP_pressure;BME280_temperature;BME280_humidity;BME280_pressure;Samples;Min_cycle;Max_cycle;Signal;HPM_P1;HPM_P2
2023/04/20 00:12:38;;;;;;;85.90;47.80;;;;;;;7.34;100.00;99177.55;270001;1270;22555;-92
2023/04/20 00:26:15;;;;;;;78.30;41.40;;;;;;;7.44;100.00;99169.66;268536;1270;24249;-90
2023/04/20 00:33:04;;;;;;;79.30;42.70;;;;;;;7.45;100.00;99163.08;269046;1275;25428;-91
2023/04/20 00:39:47;;;;;;;81.00;43.10;;;;;;;7.48;100.00;99163.61;269313;1280;25482;-90
2023/04/20 00:46:57;;;;;;;78.70;42.70;;;;;;;7.52;100.00;99163.31;269373;1266;22561;-91
2023/04/20 00:53:27;;;;;;;80.10;43.70;;;;;;;7.52;100.00;99162.71;269332;1272;22574;-91
2023/04/20 00:59:53;;;;;;;76.40;40.70;;;;;;;7.52;100.00;99165.95;269225;1273;22762;-90
2023/04/20 01:06:35;;;;;;;78.30;43.20;;;;;;;7.53;100.00;99166.15;269185;1273;23865;-92
2023/04/20 01:12:40;;;;;;;79.80;40.50;;;;;;;7.54;100.00;99170.30;269914;1272;25524;-91
2023/04/20 01:18:56;;;;;;;82.60;44.40;;;;;;;7.49;100.00;99169.48;269875;1273;22436;-90
2023/04/20 01:26:04;;;;;;;;;;;;;;;;;;;;;
2023/04/20 01:32:28;;;;;;;85.30;45.00;;;;;;;7.48;100.00;99166.34;270682;1270;22289;-90
2023/04/20 01:38:57;;;;;;;77.10;43.30;;;;;;;7.50;100.00;99167.26;269670;1271;22692;-91
2023/04/20 01:45:22;;;;;;;83.00;43.70;;;;;;;7.51;100.00;99165.09;270059;1272;22340;-91
2023/04/20 01:51:29;;;;;;;88.00;45.50;;;;;;;7.55;100.00;99163.40;270757;1270;22421;-91
2023/04/20 02:05:56;;;;;;;96.80;49.90;;;;;;;7.56;100.00;99160.32;270073;1279;22320;-90
2023/04/20 02:12:29;;;;;;;86.50;46.00;;;;;;;7.55;100.00;99158.71;269834;1271;22202;-91
2023/04/20 02:19:11;;;;;;;81.60;42.80;;;;;;;7.56;100.00;99153.86;271362;1275;22523;-92
2023/04/20 02:25:39;;;;;;;87.20;47.30;;;;;;;7.55;100.00;99154.31;268787;1277;25538;-90
2023/04/20 02:32:11;;;;;;;86.70;47.50;;;;;;;7.51;100.00;99149.44;269916;1276;22566;-91
2023/04/20 02:38:51;;;;;;;90.10;47.90;;;;;;;7.52;100.00;99153.42;269230;1277;22548;-92
2023/04/20 02:45:52;;;;;;;89.20;48.00;;;;;;;7.51;100.00;99153.27;268869;1277;22604;-91
2023/04/20 02:51:55;;;;;;;90.40;47.20;;;;;;;7.50;100.00;99156.59;270007;1270;23273;-93
2023/04/20 02:58:29;;;;;;;93.40;47.40;;;;;;;7.53;100.00;99157.04;270612;1270;22570;-92
2023/04/20 03:05:17;;;;;;;81.00;42.80;;;;;;;7.55;100.00;99157.11;269961;1272;22224;-91
2023/04/20 03:12:31;;;;;;;88.30;48.00;;;;;;;7.56;100.00;99155.09;269505;1262;22525;-91
2023/04/20 03:19:08;;;;;;;95.80;52.50;;;;;;;7.52;100.00;99157.80;270604;1270;22564;-91
2023/04/20 03:26:17;;;;;;;90.50;48.70;;;;;;;7.45;100.00;99161.59;270699;1270;22239;-92
2023/04/20 03:32:54;;;;;;;95.40;48.70;;;;;;;7.46;100.00;99167.00;269313;1276;23688;-91
2023/04/20 03:39:21;;;;;;;90.00;48.00;;;;;;;7.47;100.00;99170.75;269219;1276;22530;-91
2023/04/20 03:45:33;;;;;;;85.80;45.60;;;;;;;7.49;100.00;99174.60;268333;1275;22783;-92
2023/04/20 03:52:19;;;;;;;88.70;47.10;;;;;;;7.50;100.00;99171.92;271105;1276;23773;-91
2023/04/20 03:59:07;;;;;;;84.10;47.00;;;;;;;7.51;100.00;99172.56;269434;1270;22534;-91
2023/04/20 04:05:24;;;;;;;91.00;48.90;;;;;;;7.52;100.00;99179.21;270030;1259;22650;-90
2023/04/20 04:11:53;;;;;;;102.10;49.10;;;;;;;7.53;100.00;99184.74;269903;1270;22530;-91
2023/04/20 04:18:09;;;;;;;89.20;47.60;;;;;;;7.53;100.00;99184.06;270643;1270;24196;-90
2023/04/20 04:24:37;;;;;;;92.60;48.10;;;;;;;7.58;100.00;99190.33;269916;1271;22527;-90
2023/04/20 04:31:11;;;;;;;96.80;49.40;;;;;;;7.63;100.00;99187.82;271456;1270;22213;-91
2023/04/20 04:37:41;;;;;;;98.80;52.10;;;;;;;7.71;100.00;99193.55;270213;1270;24813;-91
2023/04/20 04:44:10;;;;;;;;;;;;;;;;;;;;;
2023/04/20 04:51:08;;;;;;;92.40;50.20;;;;;;;7.74;100.00;99208.59;269529;1272;22534;-91
2023/04/20 04:58:22;;;;;;;100.60;52.00;;;;;;;7.81;100.00;99213.10;270729;1272;22316;-90
2023/04/20 05:05:35;;;;;;;100.90;51.40;;;;;;;7.85;100.00;99211.35;273120;1271;22195;-90
2023/04/20 05:13:14;;;;;;;102.70;53.20;;;;;;;7.88;100.00;99208.69;272717;1271;23584;-88
2023/04/20 05:29:12;;;;;;;97.00;50.30;;;;;;;8.12;100.00;99231.55;268689;1289;22253;-90
2023/04/20 05:36:40;;;;;;;86.50;50.10;;;;;;;8.22;100.00;99236.73;268733;1284;22726;-90
2023/04/20 06:15:46;;;;;;;51.50;31.50;;;;;;;8.90;100.00;99245.64;265321;1285;22618;-89
2023/04/20 06:23:46;;;;;;;50.30;27.30;;;;;;;9.13;100.00;99237.33;268869;1283;25376;-89
2023/04/20 06:31:54;;;;;;;50.90;30.50;;;;;;;9.38;100.00;99231.49;268932;1289;22254;-89
2023/04/20 06:40:06;;;;;;;45.80;29.00;;;;;;;9.68;100.00;99234.96;270971;1279;22343;-90
2023/04/20 06:47:30;;;;;;;49.60;30.60;;;;;;;9.95;100.00;99234.41;270631;1286;22238;-90
2023/04/20 06:55:26;;;;;;;44.90;26.60;;;;;;;10.15;100.00;99236.03;267270;1292;22580;-89
2023/04/20 07:03:26;;;;;;;53.50;28.40;;;;;;;10.43;100.00;99242.28;266421;1285;22511;-89
2023/04/20 07:11:28;;;;;;;45.00;25.40;;;;;;;10.57;100.00;99252.90;269682;1271;22523;-90
2023/04/20 07:18:58;;;;;;;37.70;22.50;;;;;;;10.64;100.00;99250.34;267806;1288;22270;-91
2023/04/20 07:49:56;;;;;;;28.30;19.10;;;;;;;11.61;100.00;99256.08;269994;1288;22265;-88
2023/04/20 07:56:07;;;;;;;31.10;19.90;;;;;;;12.06;100.00;99258.90;270962;1272;22288;-90
2023/04/20 08:02:21;;;;;;;25.20;17.30;;;;;;;12.51;100.00;99263.36;272680;1271;22369;-89
2023/04/20 08:09:14;;;;;;;31.80;19.20;;;;;;;12.77;100.00;99265.83;272376;1275;22411;-90
2023/04/20 08:15:19;;;;;;;25.30;18.60;;;;;;;12.81;99.96;99267.11;272842;1273;22267;-91
2023/04/20 08:22:01;;;;;;;31.50;16.80;;;;;;;12.85;99.29;99267.29;269131;1272;22602;-91
2023/04/20 08:28:50;;;;;;;21.70;13.90;;;;;;;12.89;98.45;99273.27;269071;1271;22758;-91
2023/04/20 08:42:26;;;;;;;19.70;12.90;;;;;;;12.72;98.14;99280.55;271248;1272;22535;-92
2023/04/20 08:49:09;;;;;;;21.20;13.10;;;;;;;12.81;97.90;99279.19;270243;1272;23407;-91
2023/04/20 08:56:05;;;;;;;19.20;13.90;;;;;;;12.91;97.18;99276.98;270598;1271;22654;-91
2023/04/20 09:10:12;;;;;;;23.60;15.40;;;;;;;13.06;96.25;99280.55;271402;1272;22650;-90
2023/04/20 09:16:46;;;;;;;;;;;;;;;;;;;;;
2023/04/20 09:23:14;;;;;;;20.50;15.20;;;;;;;13.55;95.14;99287.70;269608;1271;23399;-90
2023/04/20 09:30:00;;;;;;;22.00;14.80;;;;;;;13.74;94.51;99283.91;269547;1271;22349;-90
2023/04/20 09:36:54;;;;;;;24.10;15.80;;;;;;;13.89;93.75;99281.67;269511;1270;24229;-88
2023/04/20 09:43:29;;;;;;;26.50;15.30;;;;;;;14.05;92.84;99278.25;269128;1272;22554;-92
2023/04/20 09:50:19;;;;;;;24.00;14.50;;;;;;;14.21;92.04;99272.30;269274;1271;22608;-91
2023/04/20 09:56:22;;;;;;;21.40;14.70;;;;;;;14.31;91.25;99271.79;269310;1270;23292;-91
2023/04/20 10:02:30;;;;;;;19.00;13.20;;;;;;;14.13;90.12;99271.98;269799;1270;24459;-91
2023/04/20 10:08:47;;;;;;;22.20;13.90;;;;;;;13.86;89.83;99268.46;270154;1272;22230;-91
2023/04/20 10:15:00;;;;;;;20.10;13.30;;;;;;;13.74;89.57;99268.90;270592;1272;24184;-92
2023/04/20 10:21:28;;;;;;;19.60;12.70;;;;;;;13.74;89.39;99267.48;271128;1271;23164;-91
2023/04/20 10:28:14;;;;;;;21.40;13.40;;;;;;;14.00;89.26;99261.88;271070;1272;22547;-92
2023/04/20 10:34:34;;;;;;;20.10;13.10;;;;;;;14.28;88.61;99259.96;271297;1271;22198;-91
2023/04/20 10:41:26;;;;;;;19.90;12.00;;;;;;;14.27;87.64;99262.08;272519;1272;22363;-92
2023/04/20 10:47:48;;;;;;;21.00;11.40;;;;;;;14.20;86.40;99255.30;271838;1272;25390;-91
2023/04/20 10:55:19;;;;;;;;;;;;;;;;;;;;;
2023/04/20 11:18:30;;;;;;;14.20;9.60;;;;;;;16.01;83.78;99240.23;268387;1279;5411936;-88
2023/04/20 11:33:13;;;;;;;15.60;8.90;;;;;;;15.75;82.92;99243.31;267794;1284;22550;-88
2023/04/20 11:40:46;;;;;;;17.20;8.30;;;;;;;16.15;81.53;99237.29;267386;1284;24732;-88
2023/04/20 11:55:02;;;;;;;9.00;6.50;;;;;;;18.37;79.78;99233.66;263502;1297;24282;-87
2023/04/20 12:01:51;;;;;;;12.30;7.90;;;;;;;18.46;77.08;99230.60;267187;1285;22546;-87
2023/04/20 12:10:15;;;;;;;11.20;7.50;;;;;;;18.18;76.25;99227.07;266956;1286;22587;-88
2023/04/20 12:24:11;;;;;;;17.10;7.30;;;;;;;17.89;74.08;99219.77;270203;1273;25420;-87
2023/04/20 12:39:27;;;;;;;11.00;6.70;;;;;;;17.21;72.42;99217.17;272387;1276;22215;-88
2023/04/20 12:53:19;;;;;;;11.50;6.10;;;;;;;17.25;70.38;99213.41;270533;1274;22336;-89
2023/04/20 12:59:21;;;;;;;14.10;5.70;;;;;;;17.28;70.26;99207.21;269259;1275;22542;-89
2023/04/20 13:05:24;;;;;;;13.20;4.90;;;;;;;17.36;68.85;99204.81;270051;1272;22524;-91
2023/04/20 13:11:38;;;;;;;9.40;3.90;;;;;;;17.10;67.91;99203.87;271173;1272;22323;-90
2023/04/20 13:18:13;;;;;;;12.10;4.10;;;;;;;17.41;67.62;99199.15;271213;1272;23398;-94
2023/04/20 13:25:44;;;;;;;;;;;;;;;;;;;;;
2023/04/20 13:32:45;;;;;;;9.80;3.40;;;;;;;17.14;65.02;99190.77;270785;1272;22337;-95
2023/04/20 13:39:53;;;;;;;8.60;3.60;;;;;;;16.95;64.89;99190.85;271434;1270;22556;-91
2023/04/20 13:46:32;;;;;;;10.50;4.20;;;;;;;16.57;64.24;99190.07;270477;1270;22956;-89
2023/04/20 13:53:37;;;;;;;11.80;4.10;;;;;;;16.33;64.65;99186.16;270841;1270;22341;-91
2023/04/20 14:00:22;;;;;;;14.40;5.60;;;;;;;16.16;64.46;99180.30;270232;1275;23324;-91
2023/04/20 14:06:38;;;;;;;12.90;5.70;;;;;;;15.97;64.35;99179.51;270486;1271;22576;-90
2023/04/20 14:13:28;;;;;;;12.40;5.00;;;;;;;15.95;65.39;99182.54;270419;1270;23201;-91
2023/04/20 14:19:46;;;;;;;12.60;5.10;;;;;;;15.88;65.24;99180.14;272815;1270;22345;-93
2023/04/20 14:26:11;;;;;;;13.70;5.20;;;;;;;15.87;65.57;99176.05;272211;1270;22312;-93
2023/04/20 14:32:18;;;;;;;14.30;4.60;;;;;;;16.12;65.67;99172.38;271922;1272;22548;-90
2023/04/20 14:47:29;;;;;;;;;;;;;;;;;;;;;
2023/04/20 14:55:02;;;;;;;10.20;4.00;;;;;;;16.13;64.46;99172.29;270940;1273;22573;-89
2023/04/20 15:02:56;;;;;;;13.20;4.70;;;;;;;15.96;64.20;99176.61;268129;1279;22534;-89
2023/04/20 15:09:55;;;;;;;;;;;;;;;15.81;64.00;99176.80;268635;1280;22538;-90
2023/04/20 15:24:00;;;;;;;18.30;4.30;;;;;;;15.59;63.88;99175.44;270510;1284;22350;-89
2023/04/20 15:32:13;;;;;;;;;;;;;;;;;;;;;
2023/04/20 15:39:20;;;;;;;12.00;4.00;;;;;;;15.56;63.69;99170.11;271761;1281;22210;-89
2023/04/20 15:46:16;;;;;;;9.70;3.60;;;;;;;15.53;63.38;99165.15;271901;1280;22971;-90
2023/04/20 15:54:10;;;;;;;11.50;3.60;;;;;;;15.53;63.58;99164.36;271012;1279;22255;-90
2023/04/20 16:02:13;;;;;;;11.70;3.40;;;;;;;15.48;63.33;99169.61;270359;1286;23344;-89
2023/04/20 16:10:05;;;;;;;14.20;3.50;;;;;;;15.38;63.29;99166.64;269308;1283;23700;-88
2023/04/20 16:25:21;;;;;;;11.80;4.00;;;;;;;15.07;63.37;99166.23;268969;1283;24272;-90
2023/04/20 16:32:19;;;;;;;;;;;;;;;;;;;;;
2023/04/20 16:47:50;;;;;;;11.90;4.10;;;;;;;14.59;64.70;99177.56;271614;1274;22851;-89
2023/04/20 16:55:56;;;;;;;15.90;3.60;;;;;;;14.47;64.95;99178.91;270760;1280;22298;-88
2023/04/20 17:03:36;;;;;;;;;;;;;;;;;;;;;
2023/04/20 17:10:38;;;;;;;9.20;4.50;;;;;;;14.30;65.77;99174.93;270701;1286;22251;-89
2023/04/20 17:18:03;;;;;;;14.80;4.90;;;;;;;14.21;66.11;99173.89;271302;1273;22341;-91
2023/04/20 17:25:55;;;;;;;13.60;4.10;;;;;;;14.07;66.79;99174.04;272526;1270;22879;-88
2023/04/20 17:41:33;;;;;;;12.50;5.10;;;;;;;13.72;69.27;99178.89;269025;1270;24225;-90
2023/04/20 17:49:31;;;;;;;12.30;5.70;;;;;;;13.43;69.77;99181.11;264802;1270;10002528;-88
2023/04/20 17:57:35;;;;;;;17.40;6.00;;;;;;;13.08;70.98;99184.20;271179;1283;22268;-89
2023/04/20 18:05:06;;;;;;;15.70;6.10;;;;;;;12.72;71.56;99186.20;271191;1281;22365;-88
2023/04/20 18:12:33;;;;;;;21.60;6.30;;;;;;;12.32;72.50;99182.81;271608;1276;22354;-89
2023/04/20 18:20:25;;;;;;;19.30;6.30;;;;;;;11.98;73.66;99182.08;272313;1276;22338;-88
2023/04/20 18:35:46;;;;;;;13.30;7.10;;;;;;;11.56;75.76;99189.11;270381;1272;22525;-90
2023/04/20 18:42:42;;;;;;;20.90;7.20;;;;;;;11.39;76.82;99189.39;269935;1278;22581;-89
2023/04/20 18:50:31;;;;;;;17.20;7.00;;;;;;;11.32;77.91;99191.98;266839;1288;22582;-89
2023/04/20 18:58:16;;;;;;;14.70;7.60;;;;;;;11.23;78.40;99196.41;268109;1282;22411;-90
2023/04/20 19:06:09;;;;;;;19.10;8.00;;;;;;;11.04;78.88;99194.71;272045;1277;22360;-89
2023/04/20 19:13:43;;;;;;;21.00;10.20;;;;;;;10.84;79.75;99200.40;269518;1292;22430;-89
2023/04/20 19:21:24;;;;;;;19.40;9.40;;;;;;;10.66;80.68;99197.88;269422;1277;22372;-89
2023/04/20 19:29:14;;;;;;;20.40;9.20;;;;;;;10.48;81.18;99192.30;272440;1271;22330;-89
2023/04/20 19:37:01;;;;;;;17.40;9.40;;;;;;;10.22;81.86;99193.02;273082;1271;22152;-89
2023/04/20 19:44:28;;;;;;;17.30;9.00;;;;;;;9.92;82.21;99195.14;273219;1271;22234;-89
2023/04/20 19:51:52;;;;;;;18.80;9.80;;;;;;;9.66;83.06;99194.07;272258;1271;23434;-89
2023/04/20 19:59:16;;;;;;;21.30;10.40;;;;;;;9.41;83.64;99193.69;271048;1267;22658;-89
2023/04/20 20:06:48;;;;;;;21.10;10.40;;;;;;;9.15;84.31;99192.16;270974;1272;22642;-88
2023/04/20 20:14:29;;;;;;;25.70;12.20;;;;;;;8.97;84.80;99189.55;270092;1271;25338;-90
2023/04/20 20:22:21;;;;;;;29.10;13.90;;;;;;;8.72;85.12;99189.25;273131;1270;22245;-90
2023/04/20 20:38:20;;;;;;;21.60;12.50;;;;;;;8.30;86.23;99187.92;272411;1272;23247;-89
2023/04/20 20:46:15;;;;;;;31.30;13.10;;;;;;;8.13;86.72;99187.56;272444;1272;22279;-90
2023/04/20 21:01:47;;;;;;;33.50;16.50;;;;;;;7.63;87.41;99193.52;269707;1272;23810;-89
2023/04/20 21:08:48;;;;;;;42.40;18.20;;;;;;;7.49;88.18;99196.64;269576;1267;22216;-90
2023/04/20 21:16:40;;;;;;;51.30;23.20;;;;;;;7.32;88.54;99191.20;269912;1275;23486;-90
2023/04/20 21:24:14;;;;;;;39.80;18.80;;;;;;;7.15;89.01;99192.69;270516;1274;22253;-90
2023/04/20 21:31:39;;;;;;;33.70;17.00;;;;;;;7.00;89.29;99194.58;270530;1274;22552;-89
2023/04/20 21:39:12;;;;;;;31.00;15.70;;;;;;;6.88;89.69;99193.99;269133;1257;25496;-89
2023/04/20 21:47:14;;;;;;;44.60;21.30;;;;;;;6.67;89.80;99195.74;267429;1287;22392;-90
2023/04/20 21:55:13;;;;;;;37.70;20.70;;;;;;;6.44;90.18;99198.61;270039;1284;22443;-90
2023/04/20 22:02:50;;;;;;;33.80;19.30;;;;;;;6.23;90.61;99202.54;270379;1284;22667;-90
2023/04/20 22:10:37;;;;;;;30.20;15.30;;;;;;;6.15;91.25;99200.18;267846;1282;22438;-90
2023/04/20 22:18:10;;;;;;;37.20;18.30;;;;;;;6.14;91.74;99199.23;268161;1277;22548;-90
2023/04/20 22:33:54;;;;;;;35.10;19.20;;;;;;;5.84;91.76;99198.57;266304;1295;22252;-90
2023/04/20 22:40:49;;;;;;;36.20;20.10;;;;;;;5.73;92.42;99200.34;269618;1289;25329;-90
2023/04/20 22:55:55;;;;;;;40.30;22.50;;;;;;;5.41;92.58;99205.70;269504;1285;22217;-90
2023/04/20 23:03:07;;;;;;;33.30;18.70;;;;;;;5.31;92.95;99204.87;269190;1286;22640;-91
2023/04/20 23:18:05;;;;;;;33.40;19.40;;;;;;;5.11;93.24;99211.37;264718;1279;5406954;-89
2023/04/20 23:37:27;;;;;;;37.00;20.60;;;;;;;5.24;93.11;99208.80;264243;1295;5357254;-89
2023/04/20 23:45:17;;;;;;;34.40;21.10;;;;;;;5.20;93.55;99204.88;272022;1279;23747;-89
